createdAt,value
2022-12-17T00:01:52.639Z,35.03
2022-12-17T00:04:38.099Z,35.58
2022-12-17T00:07:23.703Z,34.28
2022-12-17T00:10:10.557Z,35.58
2022-12-17T00:12:56.423Z,33.70
2022-12-17T00:15:43.023Z,35.63
2022-12-17T00:18:28.852Z,37.47
2022-12-17T00:21:17.610Z,34.33
2022-12-17T00:24:04.455Z,37.53
2022-12-17T00:26:51.029Z,35.72
2022-12-17T00:29:37.990Z,37.22
2022-12-17T00:32:24.265Z,54.55
2022-12-17T00:35:10.325Z,45.42
2022-12-17T00:37:55.812Z,40.53
2022-12-17T00:40:42.293Z,35.47
2022-12-17T00:43:32.378Z,38.28
2022-12-17T00:46:18.747Z,35.38
2022-12-17T00:49:07.347Z,37.13
2022-12-17T00:51:52.883Z,38.35
2022-12-17T00:54:38.381Z,36.72
2022-12-17T00:57:24.559Z,34.47
2022-12-17T01:00:10.233Z,32.67
2022-12-17T01:02:55.820Z,30.23
2022-12-17T01:05:41.716Z,28.77
2022-12-17T01:08:31.104Z,33.00
2022-12-17T01:11:22.753Z,27.25
2022-12-17T01:14:09.271Z,26.23
2022-12-17T01:16:56.219Z,26.33
2022-12-17T01:19:42.124Z,23.23
2022-12-17T01:35:32.560Z,29.77
2022-12-17T01:38:18.119Z,24.65
2022-12-17T01:41:03.599Z,25.10
2022-12-17T01:43:55.287Z,23.15
2022-12-17T01:46:44.392Z,23.23
2022-12-17T01:49:32.168Z,19.38
2022-12-17T01:52:19.403Z,18.42
2022-12-17T01:55:06.017Z,19.73
2022-12-17T01:57:52.471Z,21.10
2022-12-17T02:00:38.909Z,17.67
2022-12-17T02:03:33.240Z,17.58
2022-12-17T02:06:40.731Z,18.13
2022-12-17T02:10:05.722Z,18.05
2022-12-17T02:13:06.099Z,18.52
2022-12-17T02:15:59.374Z,19.65
2022-12-17T02:21:38.407Z,18.50
2022-12-17T02:24:36.072Z,18.58
2022-12-17T02:27:28.241Z,18.80
2022-12-17T02:30:21.036Z,19.23
2022-12-17T02:33:09.521Z,19.67
2022-12-17T02:36:09.601Z,19.58
2022-12-17T02:38:56.695Z,19.70
2022-12-17T02:41:48.899Z,19.40
2022-12-17T02:44:39.131Z,20.55
2022-12-17T02:47:29.847Z,20.45
2022-12-17T02:50:15.737Z,20.77
2022-12-17T02:53:07.729Z,20.80
2022-12-17T02:55:55.287Z,21.40
2022-12-17T02:58:41.532Z,24.85
2022-12-17T03:01:27.726Z,21.88
2022-12-17T03:04:13.587Z,22.85
2022-12-17T03:06:59.173Z,29.55
2022-12-17T03:09:44.664Z,24.55
2022-12-17T03:12:30.603Z,42.70
2022-12-17T03:15:16.000Z,65.10
2022-12-17T03:18:01.561Z,32.22
2022-12-17T03:20:47.231Z,28.67
2022-12-17T03:23:33.640Z,22.05
2022-12-17T03:26:22.433Z,23.80
2022-12-17T03:29:08.495Z,21.63
2022-12-17T03:31:54.362Z,21.52
2022-12-17T03:34:40.159Z,23.45
2022-12-17T03:37:25.842Z,21.02
2022-12-17T03:40:11.367Z,23.63
2022-12-17T03:42:57.566Z,22.80
2022-12-17T03:45:43.234Z,19.98
2022-12-17T03:48:33.440Z,23.33
2022-12-17T03:51:20.127Z,20.27
2022-12-17T03:54:06.853Z,28.40
2022-12-17T03:56:53.378Z,32.00
2022-12-17T03:59:38.905Z,22.95
2022-12-17T04:02:24.620Z,29.40
2022-12-17T04:05:15.052Z,35.83
2022-12-17T04:08:04.058Z,22.92
2022-12-17T04:10:49.551Z,23.08
2022-12-17T04:13:40.513Z,26.45
2022-12-17T04:16:28.036Z,23.02
2022-12-17T04:19:13.755Z,28.35
2022-12-17T04:21:59.347Z,23.65
2022-12-17T04:24:44.787Z,22.05
2022-12-17T04:27:30.390Z,20.02
2022-12-17T04:30:15.810Z,19.85
2022-12-17T04:33:01.491Z,19.67
2022-12-17T04:35:47.046Z,17.65
2022-12-17T04:38:32.590Z,19.13
2022-12-17T04:41:18.233Z,18.38
2022-12-17T04:44:03.812Z,19.48
2022-12-17T04:46:49.260Z,19.60
2022-12-17T04:49:34.797Z,20.30
2022-12-17T04:52:20.252Z,18.95
2022-12-17T04:55:22.531Z,19.30
2022-12-17T04:58:08.347Z,20.33
2022-12-17T05:00:53.690Z,21.55
2022-12-17T05:03:39.792Z,19.63
2022-12-17T05:06:26.018Z,20.70
2022-12-17T05:09:11.515Z,20.48
2022-12-17T05:11:58.759Z,18.48
2022-12-17T05:14:44.305Z,20.70
2022-12-17T05:17:40.213Z,20.10
2022-12-17T05:20:25.981Z,20.92
2022-12-17T05:23:11.484Z,21.75
2022-12-17T05:25:57.052Z,22.98
2022-12-17T05:28:42.796Z,21.63
2022-12-17T05:31:28.362Z,21.83
2022-12-17T05:34:14.095Z,22.08
2022-12-17T05:36:59.620Z,20.90
2022-12-17T05:39:45.036Z,21.63
2022-12-17T05:42:30.707Z,22.90
2022-12-17T05:45:16.219Z,21.65
2022-12-17T05:48:01.674Z,21.45
2022-12-17T05:50:47.811Z,20.17
2022-12-17T05:53:34.025Z,20.25
2022-12-17T05:56:19.797Z,24.08
2022-12-17T05:59:05.548Z,22.73
2022-12-17T06:01:51.101Z,18.25
2022-12-17T06:04:37.092Z,18.20
2022-12-17T06:07:22.542Z,21.38
2022-12-17T06:10:08.120Z,18.88
2022-12-17T06:12:53.740Z,17.15
2022-12-17T06:26:56.863Z,19.75
2022-12-17T06:29:50.006Z,19.23
2022-12-17T06:32:35.541Z,27.35
2022-12-17T06:35:21.062Z,20.25
2022-12-17T06:38:06.599Z,22.48
2022-12-17T06:40:52.045Z,15.45
2022-12-17T06:43:38.346Z,13.63
2022-12-17T06:46:24.613Z,16.10
2022-12-17T06:49:10.115Z,14.18
2022-12-17T06:51:55.703Z,15.27
2022-12-17T06:54:41.741Z,15.82
2022-12-17T06:57:27.347Z,15.00
2022-12-17T07:00:12.829Z,14.02
2022-12-17T07:03:02.841Z,13.75
2022-12-17T07:05:49.046Z,14.65
2022-12-17T07:08:34.656Z,15.02
2022-12-17T07:11:21.151Z,15.60
2022-12-17T07:14:06.805Z,16.30
2022-12-17T07:16:52.466Z,15.23
2022-12-17T07:19:37.750Z,15.68
2022-12-17T07:22:23.465Z,15.10
2022-12-17T07:25:09.146Z,14.68
2022-12-17T07:27:54.665Z,14.02
2022-12-17T07:30:40.309Z,18.70
2022-12-17T07:33:28.205Z,15.90
2022-12-17T07:36:15.063Z,13.57
2022-12-17T07:39:00.800Z,15.13
2022-12-17T07:41:46.382Z,15.00
2022-12-17T07:44:32.004Z,15.45
2022-12-17T07:47:17.509Z,31.92
2022-12-17T07:50:02.870Z,25.40
2022-12-17T07:52:48.499Z,23.90
2022-12-17T07:55:34.034Z,24.08
2022-12-17T07:58:25.571Z,22.63
2022-12-17T08:01:11.102Z,22.75
2022-12-17T08:03:57.898Z,19.30
2022-12-17T08:06:43.367Z,19.00
2022-12-17T08:09:28.916Z,16.92
2022-12-17T08:12:14.385Z,17.73
2022-12-17T08:15:00.085Z,14.80
2022-12-17T08:17:45.885Z,21.33
2022-12-17T08:20:31.689Z,27.00
2022-12-17T08:23:24.322Z,16.73
2022-12-17T08:26:09.864Z,16.85
2022-12-17T08:28:55.259Z,18.10
2022-12-17T08:31:43.793Z,18.08
2022-12-17T08:34:29.314Z,15.20
2022-12-17T08:37:14.502Z,17.30
2022-12-17T08:40:00.038Z,17.00
2022-12-17T08:42:45.709Z,15.52
2022-12-17T08:45:31.487Z,26.30
2022-12-17T08:48:26.489Z,20.48
2022-12-17T08:51:12.604Z,17.52
2022-12-17T08:53:58.254Z,19.83
2022-12-17T08:56:44.511Z,15.82
2022-12-17T08:59:30.076Z,13.52
2022-12-17T09:02:15.706Z,14.80
2022-12-17T09:05:01.478Z,15.80
2022-12-17T09:07:47.025Z,16.30
2022-12-17T09:10:32.612Z,14.88
2022-12-17T09:13:22.755Z,13.27
2022-12-17T09:16:13.704Z,13.93
2022-12-17T09:19:01.031Z,14.30
2022-12-17T09:21:49.116Z,14.85
2022-12-17T09:24:35.285Z,16.70
2022-12-17T09:27:20.775Z,20.95
2022-12-17T09:30:06.239Z,19.55
2022-12-17T09:32:56.318Z,17.63
2022-12-17T09:35:42.091Z,16.73
2022-12-17T09:38:35.863Z,15.80
2022-12-17T09:41:44.223Z,16.55
2022-12-17T09:44:53.958Z,15.73
2022-12-17T09:48:18.801Z,17.02
2022-12-17T09:51:25.147Z,18.65
2022-12-17T09:54:12.479Z,21.13
2022-12-17T09:57:00.726Z,23.90
2022-12-17T09:59:52.690Z,24.05
2022-12-17T10:02:44.405Z,24.75
2022-12-17T10:05:54.731Z,25.80
2022-12-17T10:08:40.586Z,26.23
2022-12-17T10:11:49.330Z,22.38
2022-12-17T10:14:42.217Z,21.63
2022-12-17T10:17:41.005Z,17.67
2022-12-17T10:20:46.451Z,17.52
2022-12-17T10:23:49.907Z,17.27
2022-12-17T10:26:51.175Z,16.80
2022-12-17T10:29:47.777Z,19.17
2022-12-17T10:32:34.034Z,16.52
2022-12-17T10:35:40.756Z,17.13
2022-12-17T10:38:42.262Z,19.42
2022-12-17T10:41:48.915Z,19.58
2022-12-17T10:44:49.171Z,18.92
2022-12-17T10:47:42.237Z,19.60
2022-12-17T10:50:43.044Z,19.02
2022-12-17T10:53:40.898Z,20.80
2022-12-17T10:56:40.799Z,22.77
2022-12-17T10:59:49.166Z,23.27
2022-12-17T11:02:47.080Z,23.67
2022-12-17T11:05:43.797Z,23.58
2022-12-17T11:08:32.823Z,22.90
2022-12-17T11:11:25.201Z,21.85
2022-12-17T11:14:14.399Z,21.88
2022-12-17T11:17:15.038Z,21.15
2022-12-17T11:20:26.837Z,21.67
2022-12-17T11:23:17.067Z,21.65
2022-12-17T11:26:29.071Z,22.52
2022-12-17T11:29:14.713Z,24.00
2022-12-17T11:32:59.240Z,22.52
2022-12-17T11:35:51.669Z,23.70
2022-12-17T11:38:48.906Z,23.30
2022-12-17T11:41:50.206Z,22.77
2022-12-17T11:45:03.495Z,23.63
2022-12-17T11:48:02.354Z,25.38
2022-12-17T11:51:03.740Z,24.77
2022-12-17T11:54:22.134Z,24.50
2022-12-17T11:57:37.191Z,24.90
2022-12-17T12:00:40.424Z,25.42
2022-12-17T12:03:58.117Z,24.38
2022-12-17T12:07:23.556Z,24.45
2022-12-17T12:10:23.485Z,25.48
2022-12-17T12:13:30.855Z,25.00
2022-12-17T12:16:43.907Z,23.05
2022-12-17T12:19:57.579Z,27.65
2022-12-17T12:22:59.254Z,26.02
2022-12-17T12:26:03.220Z,27.98
2022-12-17T12:29:01.807Z,26.55
2022-12-17T12:32:03.658Z,27.42
2022-12-17T12:34:56.560Z,28.42
2022-12-17T12:37:43.287Z,29.73
2022-12-17T12:40:58.360Z,30.42
2022-12-17T12:43:55.897Z,32.00
2022-12-17T12:47:11.770Z,33.55
2022-12-17T12:51:05.232Z,34.05
2022-12-17T12:53:51.001Z,31.73
2022-12-17T12:56:53.354Z,32.55
2022-12-17T12:59:58.348Z,31.92
2022-12-17T13:02:50.440Z,34.90
2022-12-17T13:05:34.183Z,41.38
2022-12-17T13:08:10.507Z,42.00
2022-12-17T13:10:38.489Z,41.17
2022-12-17T13:13:20.583Z,38.63
2022-12-17T13:15:55.346Z,38.60
2022-12-17T13:18:37.366Z,36.25
2022-12-17T13:21:16.890Z,34.88
2022-12-17T13:23:44.600Z,33.85
2022-12-17T13:26:24.913Z,36.88
2022-12-17T13:29:01.950Z,34.00
2022-12-17T13:31:45.128Z,34.55
2022-12-17T13:37:27.604Z,36.38
2022-12-17T13:40:22.931Z,38.72
2022-12-17T13:42:50.466Z,40.97
2022-12-17T13:45:23.441Z,41.25
2022-12-17T13:47:59.177Z,42.05
2022-12-17T13:50:35.568Z,40.55
2022-12-17T13:53:13.065Z,41.28
2022-12-17T13:55:40.335Z,44.38
2022-12-17T13:58:22.997Z,45.97
2022-12-17T14:00:50.127Z,45.95
2022-12-17T14:03:37.417Z,48.53
2022-12-17T14:06:11.960Z,50.88
2022-12-17T14:08:40.819Z,51.58
2022-12-17T14:11:26.787Z,53.63
2022-12-17T14:13:54.109Z,58.53
2022-12-17T14:16:22.332Z,55.90
2022-12-17T14:18:57.094Z,60.25
2022-12-17T14:21:28.205Z,63.40
2022-12-17T14:36:23.617Z,71.28
2022-12-17T14:38:57.658Z,66.43
2022-12-17T14:41:45.675Z,63.88
2022-12-17T14:44:31.861Z,62.47
2022-12-17T14:47:17.543Z,61.83
2022-12-17T14:50:05.608Z,58.72
2022-12-17T14:53:00.096Z,58.88
2022-12-17T14:55:58.693Z,59.65
2022-12-17T14:58:27.662Z,57.17
2022-12-17T15:01:12.613Z,58.13
2022-12-17T15:03:44.181Z,58.70
2022-12-17T15:06:17.925Z,53.55
2022-12-17T15:08:50.527Z,53.50
2022-12-17T15:11:21.423Z,53.35
2022-12-17T15:13:52.984Z,53.53
2022-12-17T15:16:23.477Z,53.10
2022-12-17T15:18:50.571Z,50.80
2022-12-17T15:21:19.582Z,51.50
2022-12-17T15:23:48.175Z,47.10
2022-12-17T15:26:15.663Z,49.00
2022-12-17T15:28:46.784Z,47.25
2022-12-17T15:31:19.551Z,46.28
2022-12-17T15:33:49.036Z,47.45
2022-12-17T15:36:16.662Z,47.53
2022-12-17T15:38:45.942Z,48.00
2022-12-17T15:41:32.308Z,47.15
2022-12-17T15:43:59.512Z,45.80
2022-12-17T15:46:26.585Z,47.08
2022-12-17T15:48:53.977Z,45.88
2022-12-17T15:51:21.100Z,45.53
2022-12-17T15:53:48.739Z,44.97
2022-12-17T15:56:26.684Z,44.63
2022-12-17T15:58:57.835Z,44.42
2022-12-17T16:01:25.330Z,44.70
2022-12-17T16:03:52.780Z,45.25
2022-12-17T16:06:19.932Z,50.92
2022-12-17T16:08:47.018Z,53.70
2022-12-17T16:11:16.166Z,54.50
2022-12-17T16:13:43.481Z,53.40
2022-12-17T16:16:11.256Z,51.92
2022-12-17T16:18:38.960Z,52.63
2022-12-17T16:21:08.903Z,48.80
2022-12-17T16:23:36.946Z,49.92
2022-12-17T16:26:07.822Z,47.15
2022-12-17T16:28:36.733Z,46.75
2022-12-17T16:31:10.303Z,40.50
2022-12-17T16:33:43.326Z,40.28
2022-12-17T16:36:16.931Z,40.45
2022-12-17T16:38:50.713Z,39.13
2022-12-17T16:41:18.637Z,40.70
2022-12-17T16:43:46.413Z,37.83
2022-12-17T16:46:35.060Z,40.17
2022-12-17T16:49:28.709Z,36.90
2022-12-17T16:51:59.579Z,37.78
2022-12-17T16:54:31.144Z,37.50
2022-12-17T16:56:58.630Z,35.15
2022-12-17T16:59:25.747Z,37.28
2022-12-17T17:01:53.503Z,35.58
2022-12-17T17:04:23.249Z,36.25
2022-12-17T17:06:56.798Z,37.78
2022-12-17T17:09:25.367Z,37.17
2022-12-17T17:11:56.957Z,37.97
2022-12-17T17:14:24.355Z,38.42
2022-12-17T17:16:52.355Z,34.40
2022-12-17T17:19:20.655Z,35.25
2022-12-17T17:21:54.172Z,34.55
2022-12-17T17:24:25.443Z,32.42
2022-12-17T17:26:54.794Z,33.58
2022-12-17T17:29:22.409Z,35.05
2022-12-17T17:34:36.413Z,36.05
2022-12-17T17:37:03.616Z,30.15
2022-12-17T17:39:33.215Z,29.30
2022-12-17T17:42:01.309Z,29.55
2022-12-17T17:44:28.285Z,28.55
2022-12-17T17:46:55.760Z,29.02
2022-12-17T17:49:22.912Z,29.98
2022-12-17T18:07:37.542Z,30.20
2022-12-17T18:10:05.193Z,25.77
2022-12-17T18:12:50.963Z,25.25
2022-12-17T18:15:18.741Z,24.73
2022-12-17T18:17:50.422Z,24.42
2022-12-17T18:20:18.568Z,24.33
2022-12-17T18:22:48.469Z,23.20
2022-12-17T18:25:17.735Z,25.10
2022-12-17T18:27:45.092Z,25.13
2022-12-17T18:30:13.321Z,27.70
2022-12-17T18:32:40.379Z,32.15
2022-12-17T18:35:08.278Z,32.78
2022-12-17T18:37:35.390Z,32.63
2022-12-17T18:40:03.322Z,33.35
2022-12-17T18:42:49.063Z,32.72
2022-12-17T18:45:16.331Z,35.05
2022-12-17T18:47:44.565Z,35.75
2022-12-17T18:50:13.151Z,33.30
2022-12-17T18:52:40.235Z,32.78
2022-12-17T18:55:08.690Z,31.55
2022-12-17T18:57:35.788Z,33.47
2022-12-17T19:00:03.886Z,33.15
2022-12-17T19:02:30.989Z,31.48
2022-12-17T19:04:58.101Z,46.60
2022-12-17T19:07:25.119Z,44.17
2022-12-17T19:09:52.160Z,35.53
2022-12-17T19:12:19.186Z,32.33
2022-12-17T19:14:46.451Z,32.85
2022-12-17T19:17:13.466Z,33.75
2022-12-17T19:19:40.468Z,29.73
2022-12-17T19:22:08.377Z,29.10
2022-12-17T19:24:36.487Z,27.38
2022-12-17T19:27:03.877Z,27.88
2022-12-17T19:29:31.031Z,28.52
2022-12-17T19:31:58.306Z,31.23
2022-12-17T19:34:25.302Z,33.90
2022-12-17T19:36:52.611Z,28.85
2022-12-17T19:39:20.653Z,25.58
2022-12-17T19:41:51.237Z,30.60
2022-12-17T19:44:21.135Z,28.02
2022-12-17T19:46:48.781Z,29.20
2022-12-17T19:49:16.754Z,28.45
2022-12-17T19:51:45.092Z,27.52
2022-12-17T19:54:15.584Z,29.00
2022-12-17T19:56:45.175Z,26.45
2022-12-17T19:59:14.232Z,26.58
2022-12-17T20:01:45.776Z,28.63
2022-12-17T20:04:16.307Z,27.50
2022-12-17T20:06:46.116Z,27.40
2022-12-17T20:09:17.663Z,28.02
2022-12-17T20:11:44.653Z,37.80
2022-12-17T20:14:13.413Z,29.30
2022-12-17T20:16:44.306Z,27.35
2022-12-17T20:19:15.424Z,25.92
2022-12-17T20:21:42.996Z,26.30
2022-12-17T20:24:12.711Z,28.52
2022-12-17T20:26:41.865Z,27.20
2022-12-17T20:29:10.061Z,27.42
2022-12-17T20:31:37.932Z,29.02
2022-12-17T20:34:08.403Z,30.23
2022-12-17T20:36:36.159Z,24.95
2022-12-17T20:39:04.231Z,29.25
2022-12-17T20:41:32.666Z,29.42
2022-12-17T20:44:10.841Z,29.15
2022-12-17T20:46:38.540Z,29.10
2022-12-17T20:49:15.957Z,29.98
2022-12-17T20:51:43.627Z,30.92
2022-12-17T20:54:11.885Z,26.60
2022-12-17T20:56:41.030Z,28.23
2022-12-17T20:59:20.265Z,27.77
2022-12-17T21:01:54.237Z,25.52
2022-12-17T21:04:24.419Z,25.77
2022-12-17T21:06:52.401Z,33.22
2022-12-17T21:09:22.985Z,28.75
2022-12-17T21:11:52.927Z,37.13
2022-12-17T21:14:20.271Z,43.92
2022-12-17T21:16:47.986Z,47.97
2022-12-17T21:19:18.832Z,39.50
2022-12-17T21:21:45.991Z,34.88
2022-12-17T21:24:13.226Z,32.85
2022-12-17T21:26:44.024Z,32.25
2022-12-17T21:29:11.729Z,31.15
2022-12-17T21:31:49.492Z,33.33
2022-12-17T21:34:23.568Z,35.55
2022-12-17T21:36:51.868Z,34.78
2022-12-17T21:39:20.331Z,33.47
2022-12-17T21:42:07.500Z,31.98
2022-12-17T21:44:35.422Z,30.25
2022-12-17T21:47:02.515Z,30.25
2022-12-17T21:49:29.687Z,30.13
2022-12-17T21:51:59.279Z,29.85
2022-12-17T21:54:26.563Z,28.23
2022-12-17T21:56:53.605Z,29.55
2022-12-17T21:59:20.707Z,29.60
2022-12-17T22:01:48.146Z,29.55
2022-12-17T22:04:15.330Z,29.83
2022-12-17T22:06:50.856Z,30.80
2022-12-17T22:09:42.262Z,31.55
2022-12-17T22:12:32.570Z,34.42
2022-12-17T22:14:59.807Z,31.38
2022-12-17T22:17:27.380Z,29.10
2022-12-17T22:19:54.364Z,28.35
2022-12-17T22:22:21.359Z,27.80
2022-12-17T22:24:48.309Z,27.63
2022-12-17T22:27:15.331Z,28.92
2022-12-17T22:30:01.038Z,29.13
2022-12-17T22:32:46.325Z,28.48
2022-12-17T22:37:01.376Z,27.63
2022-12-17T22:40:42.769Z,26.85
2022-12-17T22:44:33.817Z,25.35
2022-12-17T22:44:52.030Z,26.65
2022-12-17T22:46:23.309Z,26.80
2022-12-17T22:48:50.402Z,25.15
2022-12-17T22:51:20.239Z,27.85
2022-12-17T22:53:53.951Z,26.25
2022-12-17T22:56:27.270Z,25.75
2022-12-17T22:59:18.598Z,25.00
2022-12-17T23:01:46.616Z,25.02
2022-12-17T23:04:16.032Z,25.85
2022-12-17T23:06:48.100Z,24.58
2022-12-17T23:09:19.232Z,24.27
2022-12-17T23:11:48.615Z,25.02
2022-12-17T23:14:17.196Z,24.02
2022-12-17T23:16:48.024Z,22.58
2022-12-17T23:19:15.033Z,23.60
2022-12-17T23:21:43.267Z,23.88
2022-12-17T23:24:10.733Z,24.13
2022-12-17T23:26:39.879Z,23.23
2022-12-17T23:29:19.055Z,22.55
2022-12-17T23:31:47.410Z,22.80
2022-12-17T23:34:15.135Z,22.75
2022-12-17T23:36:42.192Z,23.70
2022-12-17T23:39:09.552Z,23.83
2022-12-17T23:41:36.645Z,22.25
2022-12-17T23:44:03.836Z,21.85
2022-12-17T23:46:31.596Z,22.15
2022-12-17T23:48:58.983Z,21.42
2022-12-17T23:51:28.177Z,20.60
2022-12-17T23:53:55.230Z,21.67
2022-12-17T23:56:26.282Z,21.00
2022-12-17T23:58:59.914Z,19.85
